HAWK444 ETHL-ETXX
Flight info
| Callsign | HAWK444 |
|---|---|
| Flight time | N/A |
| Altitude | 5000 |
| Route | HL33 OLASO ALG KPT OSDER VFR ALD LUP |
| Aircraft | EC45/M-SDGIRY/S |
Departure
| Time | 2026-04-23 19:48 |
|---|---|
| Airport | Laupheim Air Base (ETHL) |
Arrival
| Time | N/A |
|---|---|
| Airport | ETXX |
| Time | Latitude | Longitude | Altitude | Speed | Heading |
|---|---|---|---|---|---|
| 2026-04-23 19:40 | 48.21713 | 9.91194 | 1771 ft | 0 kts | 300° |
| 2026-04-23 19:44 | 48.21728 | 9.91181 | 1775 ft | 3 kts | 342° |
| 2026-04-23 19:44 | 48.21753 | 9.91196 | 1774 ft | 5 kts | 13° |
| 2026-04-23 19:45 | 48.21793 | 9.91216 | 1775 ft | 8 kts | 13° |
| 2026-04-23 19:45 | 48.21836 | 9.91218 | 1773 ft | 6 kts | 13° |
| 2026-04-23 19:45 | 48.21881 | 9.91222 | 1774 ft | 7 kts | 13° |
| 2026-04-23 19:45 | 48.21920 | 9.91221 | 1774 ft | 4 kts | 13° |
| 2026-04-23 19:46 | 48.21950 | 9.91224 | 1773 ft | 3 kts | 14° |
| 2026-04-23 19:46 | 48.21971 | 9.91228 | 1776 ft | 5 kts | 14° |
| 2026-04-23 19:46 | 48.21997 | 9.91288 | 1782 ft | 13 kts | 87° |
| 2026-04-23 19:46 | 48.21980 | 9.91607 | 1924 ft | 47 kts | 95° |
| 2026-04-23 19:47 | 48.21967 | 9.91969 | 2127 ft | 60 kts | 90° |
| 2026-04-23 19:47 | 48.21914 | 9.92802 | 2189 ft | 59 kts | 90° |
| 2026-04-23 19:47 | 48.21886 | 9.93411 | 2169 ft | 58 kts | 91° |
| 2026-04-23 19:47 | 48.21857 | 9.94021 | 2280 ft | 59 kts | 96° |
| 2026-04-23 19:48 | 48.21821 | 9.94651 | 2657 ft | 62 kts | 89° |
| 2026-04-23 19:48 | 48.21787 | 9.95290 | 2953 ft | 61 kts | 84° |
| 2026-04-23 19:48 | 48.21756 | 9.95921 | 3204 ft | 60 kts | 85° |
| 2026-04-23 19:48 | 48.21728 | 9.96545 | 3462 ft | 60 kts | 85° |
| 2026-04-23 19:49 | 48.21700 | 9.97171 | 3712 ft | 60 kts | 85° |
| 2026-04-23 19:49 | 48.21672 | 9.97816 | 3951 ft | 70 kts | 88° |
| 2026-04-23 19:49 | 48.21634 | 9.98707 | 4202 ft | 95 kts | 87° |
| 2026-04-23 19:49 | 48.21595 | 9.99666 | 4458 ft | 92 kts | 88° |
| 2026-04-23 19:50 | 48.21556 | 10.00624 | 4716 ft | 92 kts | 89° |
| 2026-04-23 19:50 | 48.21521 | 10.01586 | 4904 ft | 92 kts | 88° |
| 2026-04-23 19:50 | 48.21489 | 10.02565 | 4965 ft | 103 kts | 89° |
| 2026-04-23 19:50 | 48.21446 | 10.03751 | 5014 ft | 121 kts | 89° |
| 2026-04-23 19:51 | 48.21405 | 10.05009 | 5027 ft | 121 kts | 89° |
| 2026-04-23 19:51 | 48.21366 | 10.06271 | 5033 ft | 121 kts | 90° |
| 2026-04-23 19:51 | 48.21326 | 10.07532 | 5038 ft | 121 kts | 90° |
| 2026-04-23 19:51 | 48.21286 | 10.08793 | 5040 ft | 121 kts | 90° |
| 2026-04-23 19:52 | 48.21259 | 10.09629 | 5040 ft | 121 kts | 90° |
| 2026-04-23 19:52 | 48.21205 | 10.11313 | 5043 ft | 121 kts | 90° |
| 2026-04-23 19:52 | 48.21163 | 10.12573 | 5041 ft | 121 kts | 90° |
| 2026-04-23 19:52 | 48.21121 | 10.13832 | 5044 ft | 121 kts | 90° |
| 2026-04-23 19:53 | 48.21079 | 10.15076 | 5042 ft | 121 kts | 90° |
| 2026-04-23 19:53 | 48.21029 | 10.16414 | 5033 ft | 135 kts | 90° |
| 2026-04-23 19:53 | 48.20974 | 10.17853 | 5037 ft | 141 kts | 90° |
| 2026-04-23 19:53 | 48.20919 | 10.19332 | 5039 ft | 143 kts | 90° |
| 2026-04-23 19:54 | 48.20865 | 10.20828 | 5041 ft | 144 kts | 90° |
| 2026-04-23 19:54 | 48.20791 | 10.22328 | 5045 ft | 145 kts | 96° |
| 2026-04-23 19:54 | 48.20342 | 10.23682 | 5045 ft | 148 kts | 128° |
| 2026-04-23 19:54 | 48.19482 | 10.24495 | 5045 ft | 148 kts | 161° |
| 2026-04-23 19:55 | 48.18462 | 10.24589 | 5044 ft | 148 kts | 184° |
| 2026-04-23 19:55 | 48.17430 | 10.24485 | 5044 ft | 149 kts | 180° |
| 2026-04-23 19:55 | 48.16405 | 10.24552 | 5042 ft | 150 kts | 176° |
| 2026-04-23 19:55 | 48.15362 | 10.24662 | 5041 ft | 150 kts | 175° |
| 2026-04-23 19:56 | 48.14321 | 10.24776 | 5042 ft | 150 kts | 176° |
| 2026-04-23 19:56 | 48.13279 | 10.24884 | 5041 ft | 150 kts | 176° |
| 2026-04-23 19:56 | 48.12239 | 10.24988 | 5042 ft | 150 kts | 176° |
| 2026-04-23 19:56 | 48.11197 | 10.25090 | 5040 ft | 150 kts | 176° |
| 2026-04-23 19:57 | 48.10155 | 10.25189 | 5040 ft | 150 kts | 176° |
| 2026-04-23 19:57 | 48.09109 | 10.25287 | 5042 ft | 150 kts | 176° |
| 2026-04-23 19:57 | 48.08419 | 10.25351 | 5039 ft | 150 kts | 176° |
| 2026-04-23 19:57 | 48.07022 | 10.25480 | 5038 ft | 150 kts | 176° |
| 2026-04-23 19:58 | 48.05981 | 10.25575 | 5043 ft | 150 kts | 176° |
| 2026-04-23 19:58 | 48.04940 | 10.25670 | 5040 ft | 150 kts | 176° |
| 2026-04-23 19:58 | 48.03898 | 10.25765 | 5040 ft | 150 kts | 176° |
| 2026-04-23 19:58 | 48.02867 | 10.25858 | 5041 ft | 150 kts | 176° |
| 2026-04-23 19:59 | 48.01826 | 10.25956 | 5039 ft | 150 kts | 176° |
| 2026-04-23 19:59 | 48.00783 | 10.26067 | 5041 ft | 150 kts | 175° |
| 2026-04-23 19:59 | 47.99753 | 10.26281 | 5038 ft | 150 kts | 169° |
| 2026-04-23 19:59 | 47.98728 | 10.26580 | 5038 ft | 150 kts | 167° |
| 2026-04-23 20:00 | 47.98053 | 10.26793 | 5042 ft | 150 kts | 167° |
| 2026-04-23 20:00 | 47.97034 | 10.27127 | 5040 ft | 150 kts | 166° |
| 2026-04-23 20:00 | 47.96016 | 10.27468 | 5041 ft | 150 kts | 166° |
| 2026-04-23 20:00 | 47.94669 | 10.27927 | 5042 ft | 150 kts | 166° |
| 2026-04-23 20:01 | 47.93981 | 10.28164 | 5044 ft | 150 kts | 166° |
| 2026-04-23 20:01 | 47.92963 | 10.28515 | 5042 ft | 150 kts | 166° |
| 2026-04-23 20:01 | 47.91946 | 10.28868 | 5041 ft | 150 kts | 166° |
| 2026-04-23 20:01 | 47.90930 | 10.29221 | 5040 ft | 150 kts | 166° |
| 2026-04-23 20:02 | 47.89911 | 10.29575 | 5041 ft | 150 kts | 166° |
| 2026-04-23 20:02 | 47.88901 | 10.29927 | 5042 ft | 151 kts | 166° |
| 2026-04-23 20:02 | 47.87876 | 10.30285 | 5040 ft | 151 kts | 166° |
| 2026-04-23 20:02 | 47.86850 | 10.30641 | 5041 ft | 151 kts | 166° |
| 2026-04-23 20:03 | 47.85831 | 10.30995 | 5043 ft | 150 kts | 166° |
| 2026-04-23 20:03 | 47.84835 | 10.31341 | 5042 ft | 149 kts | 166° |
| 2026-04-23 20:03 | 47.83814 | 10.31697 | 5042 ft | 151 kts | 166° |
| 2026-04-23 20:03 | 47.82791 | 10.32053 | 5045 ft | 151 kts | 166° |
| 2026-04-23 20:04 | 47.81770 | 10.32408 | 5043 ft | 150 kts | 166° |
| 2026-04-23 20:04 | 47.80754 | 10.32760 | 5044 ft | 150 kts | 166° |
| 2026-04-23 20:04 | 47.79739 | 10.33113 | 5046 ft | 150 kts | 166° |
| 2026-04-23 20:04 | 47.78735 | 10.33461 | 5039 ft | 150 kts | 166° |
| 2026-04-23 20:05 | 47.77722 | 10.33813 | 5043 ft | 149 kts | 165° |
| 2026-04-23 20:05 | 47.76706 | 10.34166 | 5045 ft | 150 kts | 165° |
| 2026-04-23 20:05 | 47.75692 | 10.34518 | 5046 ft | 150 kts | 166° |
| 2026-04-23 20:05 | 47.74734 | 10.35077 | 5057 ft | 147 kts | 145° |
| 2026-04-23 20:06 | 47.74073 | 10.36189 | 5052 ft | 143 kts | 116° |
| 2026-04-23 20:06 | 47.73827 | 10.37585 | 5050 ft | 141 kts | 95° |
| 2026-04-23 20:06 | 47.73752 | 10.39051 | 5045 ft | 142 kts | 91° |
| 2026-04-23 20:06 | 47.73679 | 10.40512 | 5050 ft | 142 kts | 92° |
| 2026-04-23 20:07 | 47.73572 | 10.41976 | 5047 ft | 143 kts | 96° |
| 2026-04-23 20:07 | 47.73406 | 10.43433 | 5046 ft | 143 kts | 98° |
| 2026-04-23 20:07 | 47.73229 | 10.44898 | 5048 ft | 144 kts | 98° |
| 2026-04-23 20:07 | 47.73056 | 10.46361 | 5047 ft | 144 kts | 98° |
| 2026-04-23 20:08 | 47.72888 | 10.47812 | 5046 ft | 145 kts | 98° |
| 2026-04-23 20:08 | 47.72721 | 10.49281 | 5051 ft | 144 kts | 97° |
| 2026-04-23 20:08 | 47.72556 | 10.50749 | 5046 ft | 144 kts | 98° |
| 2026-04-23 20:08 | 47.72391 | 10.52220 | 5046 ft | 144 kts | 97° |
| 2026-04-23 20:09 | 47.72229 | 10.53686 | 5050 ft | 144 kts | 98° |
| 2026-04-23 20:09 | 47.72066 | 10.55149 | 5050 ft | 143 kts | 97° |
| 2026-04-23 20:09 | 47.71905 | 10.56615 | 5045 ft | 144 kts | 98° |
| 2026-04-23 20:09 | 47.71745 | 10.58066 | 5046 ft | 144 kts | 98° |
| 2026-04-23 20:10 | 47.71582 | 10.59537 | 5044 ft | 144 kts | 97° |
| 2026-04-23 20:10 | 47.71420 | 10.61007 | 5043 ft | 145 kts | 98° |
| 2026-04-23 20:10 | 47.71257 | 10.62479 | 5040 ft | 145 kts | 98° |
| 2026-04-23 20:10 | 47.71094 | 10.63957 | 5045 ft | 145 kts | 98° |
| 2026-04-23 20:11 | 47.70930 | 10.65434 | 5041 ft | 145 kts | 98° |
| 2026-04-23 20:11 | 47.70767 | 10.66911 | 5043 ft | 145 kts | 98° |
| 2026-04-23 20:11 | 47.70611 | 10.68379 | 4937 ft | 143 kts | 97° |
| 2026-04-23 20:11 | 47.70471 | 10.69835 | 4829 ft | 142 kts | 96° |
| 2026-04-23 20:12 | 47.70347 | 10.71280 | 4726 ft | 141 kts | 95° |
| 2026-04-23 20:12 | 47.70239 | 10.72718 | 4625 ft | 140 kts | 94° |
| 2026-04-23 20:12 | 47.70145 | 10.74154 | 4521 ft | 139 kts | 94° |
| 2026-04-23 20:12 | 47.70066 | 10.75586 | 4427 ft | 139 kts | 93° |
| 2026-04-23 20:13 | 47.70003 | 10.76994 | 4339 ft | 138 kts | 94° |
| 2026-04-23 20:13 | 47.69911 | 10.78362 | 4345 ft | 132 kts | 90° |
| 2026-04-23 20:13 | 47.70119 | 10.79664 | 4313 ft | 130 kts | 61° |
| 2026-04-23 20:13 | 47.70551 | 10.80830 | 4321 ft | 128 kts | 59° |
| 2026-04-23 20:14 | 47.70994 | 10.81972 | 4324 ft | 127 kts | 58° |
| 2026-04-23 20:14 | 47.71450 | 10.83096 | 4311 ft | 128 kts | 56° |
| 2026-04-23 20:14 | 47.72042 | 10.84097 | 4254 ft | 130 kts | 42° |
| 2026-04-23 20:14 | 47.72762 | 10.84898 | 4207 ft | 129 kts | 30° |
| 2026-04-23 20:15 | 47.73598 | 10.85390 | 4163 ft | 129 kts | 12° |
| 2026-04-23 20:15 | 47.74474 | 10.85601 | 4123 ft | 129 kts | 7° |
| 2026-04-23 20:15 | 47.75360 | 10.85767 | 4090 ft | 128 kts | 7° |
| 2026-04-23 20:15 | 47.76250 | 10.85937 | 4054 ft | 128 kts | 5° |
| 2026-04-23 20:16 | 47.77137 | 10.86014 | 4029 ft | 128 kts | 0° |
| 2026-04-23 20:16 | 47.78049 | 10.85970 | 3580 ft | 132 kts | 353° |
| 2026-04-23 20:16 | 47.78838 | 10.85762 | 3384 ft | 101 kts | 349° |
| 2026-04-23 20:16 | 47.79468 | 10.85584 | 3274 ft | 86 kts | 351° |
| 2026-04-23 20:17 | 47.80011 | 10.85458 | 3163 ft | 73 kts | 353° |
| 2026-04-23 20:17 | 47.80488 | 10.85357 | 3040 ft | 65 kts | 351° |
| 2026-04-23 20:17 | 47.80923 | 10.85279 | 2922 ft | 62 kts | 358° |
| 2026-04-23 20:17 | 47.81387 | 10.85298 | 2757 ft | 67 kts | 359° |
| 2026-04-23 20:18 | 47.81864 | 10.85301 | 2847 ft | 70 kts | 357° |
| 2026-04-23 20:18 | 47.82389 | 10.85288 | 2892 ft | 80 kts | 357° |
| 2026-04-23 20:18 | 47.82964 | 10.85277 | 2926 ft | 87 kts | 356° |
| 2026-04-23 20:18 | 47.83562 | 10.85490 | 2758 ft | 97 kts | 60° |
| 2026-04-23 20:19 | 47.83535 | 10.86410 | 2507 ft | 80 kts | 85° |
| 2026-04-23 20:19 | 47.83550 | 10.87105 | 2443 ft | 52 kts | 97° |
| 2026-04-23 20:19 | 47.83545 | 10.87542 | 2513 ft | 40 kts | 86° |
| 2026-04-23 20:19 | 47.83720 | 10.87453 | 2739 ft | 58 kts | 285° |
| 2026-04-23 20:20 | 47.83814 | 10.86766 | 3107 ft | 82 kts | 279° |
| 2026-04-23 20:20 | 47.83981 | 10.85884 | 3353 ft | 96 kts | 291° |
| 2026-04-23 20:20 | 47.84256 | 10.84918 | 3504 ft | 106 kts | 297° |
| 2026-04-23 20:20 | 47.84615 | 10.83910 | 3608 ft | 113 kts | 302° |
| 2026-04-23 20:21 | 47.84928 | 10.82809 | 3710 ft | 119 kts | 287° |
| 2026-04-23 20:21 | 47.84766 | 10.81562 | 3760 ft | 128 kts | 250° |
| 2026-04-23 20:21 | 47.84417 | 10.80340 | 3829 ft | 129 kts | 249° |
| 2026-04-23 20:21 | 47.84051 | 10.79124 | 3903 ft | 129 kts | 248° |
| 2026-04-23 20:22 | 47.83666 | 10.77911 | 3988 ft | 130 kts | 247° |
| 2026-04-23 20:22 | 47.83264 | 10.76708 | 4056 ft | 130 kts | 246° |
| 2026-04-23 20:22 | 47.82845 | 10.75515 | 4130 ft | 130 kts | 244° |
| 2026-04-23 20:22 | 47.82408 | 10.74330 | 4211 ft | 130 kts | 243° |
| 2026-04-23 20:23 | 47.81956 | 10.73160 | 4280 ft | 131 kts | 242° |
| 2026-04-23 20:23 | 47.81493 | 10.72016 | 4354 ft | 131 kts | 241° |
| 2026-04-23 20:23 | 47.81008 | 10.70868 | 4425 ft | 131 kts | 239° |
| 2026-04-23 20:23 | 47.80508 | 10.69736 | 4498 ft | 131 kts | 238° |
| 2026-04-23 20:24 | 47.79989 | 10.68614 | 4570 ft | 131 kts | 237° |
| 2026-04-23 20:24 | 47.79448 | 10.67493 | 4596 ft | 135 kts | 235° |
| 2026-04-23 20:24 | 47.78886 | 10.66363 | 4600 ft | 137 kts | 236° |
| 2026-04-23 20:24 | 47.78595 | 10.65025 | 4562 ft | 138 kts | 268° |
| 2026-04-23 20:25 | 47.78811 | 10.63655 | 4520 ft | 137 kts | 294° |
| 2026-04-23 20:25 | 47.79212 | 10.62376 | 4513 ft | 136 kts | 299° |
| 2026-04-23 20:25 | 47.79681 | 10.61156 | 4499 ft | 135 kts | 304° |
| 2026-04-23 20:25 | 47.80213 | 10.60005 | 4489 ft | 135 kts | 309° |
| 2026-04-23 20:26 | 47.80807 | 10.58931 | 4472 ft | 134 kts | 314° |
| 2026-04-23 20:26 | 47.81448 | 10.57955 | 4455 ft | 133 kts | 318° |
| 2026-04-23 20:26 | 47.82150 | 10.57054 | 4442 ft | 133 kts | 323° |
| 2026-04-23 20:26 | 47.82901 | 10.56248 | 4425 ft | 133 kts | 328° |
| 2026-04-23 20:27 | 47.83693 | 10.55542 | 4424 ft | 132 kts | 333° |
| 2026-04-23 20:27 | 47.84485 | 10.54842 | 4414 ft | 132 kts | 330° |
| 2026-04-23 20:27 | 47.85256 | 10.54090 | 4403 ft | 132 kts | 327° |
| 2026-04-23 20:27 | 47.86005 | 10.53287 | 4401 ft | 132 kts | 325° |
| 2026-04-23 20:28 | 47.86731 | 10.52431 | 4394 ft | 133 kts | 322° |
| 2026-04-23 20:28 | 47.87421 | 10.51543 | 4398 ft | 133 kts | 320° |
| 2026-04-23 20:28 | 47.88092 | 10.50598 | 4392 ft | 133 kts | 318° |
| 2026-04-23 20:28 | 47.88735 | 10.49609 | 4388 ft | 133 kts | 315° |
| 2026-04-23 20:29 | 47.89350 | 10.48576 | 4388 ft | 133 kts | 313° |
| 2026-04-23 20:29 | 47.89936 | 10.47501 | 4391 ft | 133 kts | 311° |
| 2026-04-23 20:29 | 47.90487 | 10.46384 | 4391 ft | 134 kts | 307° |
| 2026-04-23 20:29 | 47.90789 | 10.45032 | 4294 ft | 143 kts | 279° |
| 2026-04-23 20:30 | 47.90625 | 10.43546 | 4176 ft | 149 kts | 251° |
| 2026-04-23 20:30 | 47.89258 | 10.41235 | 4046 ft | 147 kts | 226° |
| 2026-04-23 20:30 | 47.88566 | 10.40152 | 4080 ft | 142 kts | 230° |
| 2026-04-23 20:31 | 47.87939 | 10.39039 | 4130 ft | 139 kts | 234° |
| 2026-04-23 20:31 | 47.87372 | 10.37885 | 4183 ft | 137 kts | 238° |
| 2026-04-23 20:31 | 47.86874 | 10.36684 | 4243 ft | 135 kts | 245° |
| 2026-04-23 20:31 | 47.86709 | 10.35333 | 4238 ft | 133 kts | 276° |
| 2026-04-23 20:32 | 47.86871 | 10.33983 | 4271 ft | 132 kts | 284° |
| 2026-04-23 20:32 | 47.87037 | 10.32645 | 4351 ft | 131 kts | 284° |
| 2026-04-23 20:32 | 47.87226 | 10.31320 | 4413 ft | 130 kts | 292° |
| 2026-04-23 20:32 | 47.87706 | 10.30211 | 4460 ft | 129 kts | 310° |
| 2026-04-23 20:33 | 47.88264 | 10.29177 | 4534 ft | 128 kts | 313° |
| 2026-04-23 20:33 | 47.88855 | 10.28190 | 4605 ft | 128 kts | 315° |
| 2026-04-23 20:33 | 47.89451 | 10.27211 | 4667 ft | 128 kts | 315° |
| 2026-04-23 20:33 | 47.90063 | 10.26254 | 4727 ft | 127 kts | 322° |
| 2026-04-23 20:34 | 47.90824 | 10.25609 | 4778 ft | 126 kts | 338° |
| 2026-04-23 20:34 | 47.91647 | 10.25182 | 4840 ft | 125 kts | 346° |
| 2026-04-23 20:34 | 47.92490 | 10.24865 | 4896 ft | 125 kts | 349° |
| 2026-04-23 20:34 | 47.93342 | 10.24621 | 4953 ft | 125 kts | 352° |
| 2026-04-23 20:35 | 47.94201 | 10.24450 | 5015 ft | 124 kts | 355° |
| 2026-04-23 20:35 | 47.95065 | 10.24352 | 5076 ft | 125 kts | 358° |
| 2026-04-23 20:35 | 47.95931 | 10.24326 | 5134 ft | 125 kts | 1° |
| 2026-04-23 20:35 | 47.96788 | 10.24277 | 5188 ft | 125 kts | 357° |
| 2026-04-23 20:36 | 47.97653 | 10.24147 | 5246 ft | 125 kts | 354° |
| 2026-04-23 20:36 | 47.98514 | 10.23936 | 5299 ft | 126 kts | 350° |
| 2026-04-23 20:36 | 47.99369 | 10.23645 | 5357 ft | 126 kts | 347° |
| 2026-04-23 20:36 | 48.00212 | 10.23274 | 5411 ft | 126 kts | 343° |
| 2026-04-23 20:37 | 48.01040 | 10.22825 | 5465 ft | 127 kts | 340° |
| 2026-04-23 20:37 | 48.01870 | 10.22384 | 5520 ft | 127 kts | 344° |
| 2026-04-23 20:37 | 48.02725 | 10.22061 | 5570 ft | 126 kts | 349° |
| 2026-04-23 20:37 | 48.03594 | 10.21862 | 5622 ft | 126 kts | 354° |
| 2026-04-23 20:38 | 48.04474 | 10.21786 | 5675 ft | 126 kts | 360° |
| 2026-04-23 20:38 | 48.05349 | 10.21888 | 5725 ft | 127 kts | 8° |
| 2026-04-23 20:38 | 48.06219 | 10.22099 | 5781 ft | 127 kts | 10° |
| 2026-04-23 20:38 | 48.07084 | 10.22357 | 5835 ft | 127 kts | 12° |
| 2026-04-23 20:39 | 48.07941 | 10.22662 | 5891 ft | 126 kts | 14° |
| 2026-04-23 20:39 | 48.08825 | 10.23023 | 5699 ft | 141 kts | 15° |
| 2026-04-23 20:39 | 48.09792 | 10.23451 | 5473 ft | 147 kts | 15° |
| 2026-04-23 20:39 | 48.10821 | 10.23510 | 5245 ft | 150 kts | 352° |
| 2026-04-23 20:40 | 48.11792 | 10.22931 | 5009 ft | 152 kts | 329° |
| 2026-04-23 20:40 | 48.12595 | 10.21891 | 4768 ft | 153 kts | 317° |
| 2026-04-23 20:40 | 48.13314 | 10.20715 | 4542 ft | 152 kts | 313° |
| 2026-04-23 20:40 | 48.13972 | 10.19474 | 4306 ft | 152 kts | 309° |
| 2026-04-23 20:41 | 48.14572 | 10.18176 | 4096 ft | 151 kts | 306° |
| 2026-04-23 20:41 | 48.15113 | 10.16825 | 3889 ft | 151 kts | 303° |
| 2026-04-23 20:41 | 48.15691 | 10.15573 | 3840 ft | 141 kts | 309° |
| 2026-04-23 20:41 | 48.16222 | 10.14436 | 3931 ft | 130 kts | 309° |
| 2026-04-23 20:42 | 48.16736 | 10.13366 | 4048 ft | 124 kts | 310° |
| 2026-04-23 20:42 | 48.17245 | 10.12351 | 4185 ft | 120 kts | 311° |
| 2026-04-23 20:42 | 48.17760 | 10.11377 | 4330 ft | 118 kts | 313° |
| 2026-04-23 20:42 | 48.18296 | 10.10424 | 4403 ft | 122 kts | 314° |
| 2026-04-23 20:43 | 48.18872 | 10.09457 | 4443 ft | 126 kts | 315° |
| 2026-04-23 20:43 | 48.19479 | 10.08491 | 4465 ft | 128 kts | 316° |
| 2026-04-23 20:43 | 48.20110 | 10.07532 | 4479 ft | 130 kts | 318° |
| 2026-04-23 20:43 | 48.20749 | 10.06575 | 4503 ft | 129 kts | 315° |
| 2026-04-23 20:44 | 48.21195 | 10.05430 | 4607 ft | 128 kts | 296° |
| 2026-04-23 20:44 | 48.21438 | 10.04138 | 4396 ft | 130 kts | 285° |
| 2026-04-23 20:44 | 48.21588 | 10.02815 | 4177 ft | 128 kts | 281° |
| 2026-04-23 20:44 | 48.21671 | 10.01493 | 3841 ft | 128 kts | 278° |
| 2026-04-23 20:45 | 48.21708 | 10.00177 | 3415 ft | 119 kts | 276° |
| 2026-04-23 20:45 | 48.21688 | 9.99023 | 3120 ft | 102 kts | 275° |
| 2026-04-23 20:45 | 48.21699 | 9.98056 | 3077 ft | 85 kts | 281° |
| 2026-04-23 20:45 | 48.21745 | 9.97145 | 3037 ft | 91 kts | 281° |
| 2026-04-23 20:46 | 48.21791 | 9.96128 | 2758 ft | 102 kts | 279° |
| 2026-04-23 20:46 | 48.21842 | 9.95430 | 2584 ft | 101 kts | 279° |
| 2026-04-23 20:46 | 48.21905 | 9.94393 | 2278 ft | 97 kts | 273° |
| 2026-04-23 20:46 | 48.21946 | 9.93159 | 1983 ft | 75 kts | 274° |
| 2026-04-23 20:47 | 48.21959 | 9.92691 | 1885 ft | 58 kts | 275° |
| 2026-04-23 20:47 | 48.21967 | 9.92137 | 1789 ft | 23 kts | 282° |
| 2026-04-23 20:47 | 48.21966 | 9.92036 | 1782 ft | 11 kts | 287° |
| 2026-04-23 20:47 | 48.21968 | 9.91929 | 1774 ft | 7 kts | 288° |
| 2026-04-23 20:48 | 48.21982 | 9.91842 | 1777 ft | 6 kts | 255° |
| 2026-04-23 20:48 | 48.21985 | 9.91755 | 1776 ft | 9 kts | 270° |
| 2026-04-23 20:48 | 48.21991 | 9.91627 | 1776 ft | 14 kts | 270° |
| 2026-04-23 20:48 | 48.21992 | 9.91488 | 1775 ft | 11 kts | 270° |
| 2026-04-23 20:49 | 48.21995 | 9.91378 | 1780 ft | 11 kts | 270° |
| 2026-04-23 20:49 | 48.21998 | 9.91268 | 1782 ft | 8 kts | 234° |
| 2026-04-23 20:49 | 48.21919 | 9.91221 | 1786 ft | 13 kts | 169° |
| 2026-04-23 20:49 | 48.21824 | 9.91217 | 1775 ft | 12 kts | 186° |
| 2026-04-23 20:50 | 48.21770 | 9.91200 | 1777 ft | 7 kts | 188° |
| 2026-04-23 20:50 | 48.21727 | 9.91185 | 1775 ft | 5 kts | 266° |
| 2026-04-23 20:50 | 48.21718 | 9.91192 | 1773 ft | 1 kts | 291° |
| 2026-04-23 20:50 | 48.21715 | 9.91192 | 1774 ft | 2 kts | 291° |
| 2026-04-23 20:51 | 48.21720 | 9.91191 | 1771 ft | 0 kts | 295° |